Time;durP1;ratioP1;P1;durP2;ratioP2;P2;SDS_P1;SDS_P2;PMS_P1;PMS_P2;Temp;Humidity;BMP_temperature;BMP_pressure;BME280_temperature;BME280_humidity;BME280_pressure;Samples;Min_cycle;Max_cycle;Signal;HPM_P1;HPM_P2
2024/01/26 00:01:36;;;;;;;11.20;10.00;;;9.60;99.90;;;;;;5031117;28;20182;-72
2024/01/26 00:04:01;;;;;;;10.90;9.80;;;9.60;99.90;;;;;;5013967;28;20439;-72
2024/01/26 00:06:27;;;;;;;10.67;9.50;;;9.60;99.90;;;;;;5032574;28;20186;-72
2024/01/26 00:08:53;;;;;;;9.77;8.77;;;9.60;99.90;;;;;;5030859;28;20196;-72
2024/01/26 00:11:19;;;;;;;11.20;9.30;;;9.60;99.90;;;;;;5032254;28;20915;-72
2024/01/26 00:13:45;;;;;;;10.77;8.83;;;9.60;99.90;;;;;;5031150;28;20355;-72
2024/01/26 00:16:11;;;;;;;9.97;8.90;;;9.60;99.90;;;;;;5015864;28;20441;-72
2024/01/26 00:18:38;;;;;;;9.20;8.13;;;9.70;99.90;;;;;;5032460;28;20421;-72
2024/01/26 00:21:04;;;;;;;11.83;9.27;;;9.70;99.90;;;;;;5031483;28;20462;-72
2024/01/26 00:23:30;;;;;;;9.20;8.13;;;9.70;99.90;;;;;;5015146;28;20813;-72
2024/01/26 00:25:57;;;;;;;10.20;8.70;;;9.70;99.90;;;;;;5012473;28;20182;-72
2024/01/26 00:28:22;;;;;;;9.97;8.87;;;9.70;99.90;;;;;;5031709;28;20454;-72
2024/01/26 00:30:48;;;;;;;11.17;9.33;;;9.70;99.90;;;;;;5031182;28;20997;-72
2024/01/26 00:33:14;;;;;;;9.43;8.37;;;9.70;99.90;;;;;;5013920;28;20252;-72
2024/01/26 00:35:39;;;;;;;11.30;9.53;;;9.70;99.90;;;;;;5031743;28;20209;-72
2024/01/26 00:38:05;;;;;;;10.83;9.67;;;9.70;99.90;;;;;;5030828;28;20182;-72
2024/01/26 00:40:31;;;;;;;11.00;9.80;;;9.70;99.90;;;;;;5032380;28;20186;-72
2024/01/26 00:42:56;;;;;;;10.57;9.00;;;9.70;99.90;;;;;;5030640;28;20194;-72
2024/01/26 00:45:22;;;;;;;10.30;9.20;;;9.70;99.90;;;;;;5031704;28;20272;-72
2024/01/26 00:47:47;;;;;;;10.53;9.27;;;9.70;99.90;;;;;;5032204;28;20882;-72
2024/01/26 00:50:13;;;;;;;11.40;9.67;;;9.80;99.90;;;;;;5032875;28;20217;-72
2024/01/26 00:52:40;;;;;;;9.93;8.90;;;9.80;99.90;;;;;;5032275;28;20218;-72
2024/01/26 00:55:06;;;;;;;11.73;9.27;;;9.80;99.90;;;;;;5032022;28;20193;-72
2024/01/26 00:57:31;;;;;;;10.57;9.47;;;9.70;99.90;;;;;;5032254;28;20421;-72
2024/01/26 00:59:59;;;;;;;11.60;9.93;;;9.80;99.90;;;;;;5032355;28;20425;-72
2024/01/26 01:02:25;;;;;;;12.60;10.23;;;9.80;99.90;;;;;;5032362;28;20638;-72
2024/01/26 01:04:51;;;;;;;11.27;9.50;;;9.80;99.90;;;;;;5031426;28;20463;-72
2024/01/26 01:07:16;;;;;;;9.63;8.73;;;9.80;99.90;;;;;;5033001;28;20183;-72
2024/01/26 01:09:42;;;;;;;10.80;9.70;;;9.80;99.90;;;;;;5032433;28;20836;-72
2024/01/26 01:12:08;;;;;;;10.43;9.37;;;9.80;99.90;;;;;;5032366;28;20248;-72
2024/01/26 01:14:36;;;;;;;11.20;10.10;;;9.80;99.90;;;;;;5032631;28;20205;-72
2024/01/26 01:17:04;;;;;;;10.60;9.50;;;9.90;99.90;;;;;;5031242;28;20208;-72
2024/01/26 01:19:30;;;;;;;11.37;10.10;;;9.80;99.90;;;;;;5032509;28;20534;-72
2024/01/26 01:21:56;;;;;;;12.50;10.80;;;9.80;99.90;;;;;;5031326;28;20456;-72
2024/01/26 01:24:22;;;;;;;11.73;10.43;;;9.80;99.90;;;;;;5032948;28;20193;-72
2024/01/26 01:26:47;;;;;;;12.00;10.20;;;9.90;99.90;;;;;;5031901;28;20425;-73
2024/01/26 01:29:13;;;;;;;14.00;11.93;;;9.80;99.90;;;;;;5033121;28;20221;-72
2024/01/26 01:31:39;;;;;;;13.60;11.00;;;9.80;99.90;;;;;;5032379;28;20234;-72
2024/01/26 01:34:05;;;;;;;14.27;11.60;;;9.90;99.90;;;;;;5035079;28;20471;-72
2024/01/26 01:36:31;;;;;;;14.23;12.20;;;9.90;99.90;;;;;;5035098;28;20787;-74
2024/01/26 01:38:56;;;;;;;13.50;12.07;;;9.90;99.90;;;;;;5035533;28;20575;-72
2024/01/26 01:41:22;;;;;;;14.57;13.03;;;9.90;99.90;;;;;;5035887;28;20232;-72
2024/01/26 01:43:57;;;;;;;14.50;12.70;;;9.90;99.90;;;;;;5035300;28;20624;-72
2024/01/26 01:46:23;;;;;;;17.80;13.70;;;9.90;99.90;;;;;;5035594;28;20431;-72
2024/01/26 01:48:50;;;;;;;15.40;12.93;;;9.90;99.90;;;;;;5035876;28;20455;-72
2024/01/26 01:51:16;;;;;;;16.20;13.37;;;9.90;99.90;;;;;;5035789;28;20192;-72
2024/01/26 01:53:42;;;;;;;17.53;13.70;;;9.90;99.90;;;;;;5034714;28;20971;-72
2024/01/26 01:56:11;;;;;;;16.50;13.80;;;9.90;99.90;;;;;;5035908;28;20747;-72
2024/01/26 01:58:41;;;;;;;17.00;14.40;;;9.90;99.90;;;;;;5033746;28;20436;-72
2024/01/26 02:01:08;;;;;;;14.97;13.30;;;9.90;99.90;;;;;;5035139;28;20806;-72
2024/01/26 02:03:34;;;;;;;16.30;12.70;;;9.90;99.90;;;;;;5036106;28;20431;-72
2024/01/26 02:06:00;;;;;;;18.47;14.43;;;9.90;99.90;;;;;;5035539;28;20433;-72
2024/01/26 02:08:25;;;;;;;14.80;12.87;;;9.90;99.90;;;;;;5036102;28;20502;-72
2024/01/26 02:10:51;;;;;;;17.57;13.40;;;9.90;99.90;;;;;;5035076;28;20197;-73
2024/01/26 02:13:17;;;;;;;17.50;13.77;;;9.90;99.90;;;;;;5035485;28;20216;-72
2024/01/26 02:15:42;;;;;;;14.57;12.43;;;9.90;99.90;;;;;;5034661;28;20205;-72
2024/01/26 02:18:08;;;;;;;15.53;12.83;;;10.00;99.90;;;;;;5035881;28;20205;-72
2024/01/26 02:20:34;;;;;;;13.53;12.03;;;9.90;99.90;;;;;;5035290;28;20224;-73
2024/01/26 02:22:59;;;;;;;15.20;12.30;;;10.00;99.90;;;;;;5035692;28;20739;-72
2024/01/26 02:25:25;;;;;;;16.57;12.40;;;10.00;99.90;;;;;;5017243;28;20934;-73
2024/01/26 02:27:52;;;;;;;12.47;11.17;;;10.00;99.90;;;;;;5034456;28;20526;-72
2024/01/26 02:30:18;;;;;;;12.73;10.80;;;9.90;99.90;;;;;;5034869;28;20425;-72
2024/01/26 02:32:43;;;;;;;13.43;11.30;;;10.00;99.90;;;;;;5034697;28;20464;-72
2024/01/26 02:35:10;;;;;;;16.20;12.63;;;10.00;99.90;;;;;;5035263;28;20179;-72
2024/01/26 02:37:35;;;;;;;12.87;11.00;;;10.00;99.90;;;;;;5017429;28;20268;-73
2024/01/26 02:40:01;;;;;;;14.37;11.57;;;10.00;99.90;;;;;;5035181;28;21022;-72
2024/01/26 02:42:27;;;;;;;12.37;10.80;;;10.00;99.90;;;;;;5035066;28;20258;-72
2024/01/26 02:44:53;;;;;;;10.70;9.60;;;10.00;99.90;;;;;;5017115;28;20710;-72
2024/01/26 02:47:18;;;;;;;11.37;10.03;;;10.00;99.90;;;;;;5035371;28;20266;-72
2024/01/26 02:49:44;;;;;;;14.40;11.40;;;10.00;99.90;;;;;;5034916;28;20185;-73
2024/01/26 02:52:10;;;;;;;10.07;9.03;;;10.00;99.90;;;;;;5034829;28;20496;-72
2024/01/26 02:54:35;;;;;;;12.00;10.10;;;10.00;99.90;;;;;;5034864;28;20192;-72
2024/01/26 02:57:01;;;;;;;10.90;9.60;;;10.00;99.90;;;;;;5034382;28;20187;-72
2024/01/26 02:59:27;;;;;;;13.53;10.50;;;10.00;99.90;;;;;;5034425;28;20724;-72
2024/01/26 03:01:53;;;;;;;11.87;10.30;;;10.00;99.90;;;;;;5034086;28;20232;-72
2024/01/26 03:04:19;;;;;;;11.20;9.60;;;10.10;99.90;;;;;;5035020;28;20185;-72
2024/01/26 03:06:45;;;;;;;11.67;9.50;;;10.10;99.90;;;;;;5034017;28;20217;-72
2024/01/26 03:09:11;;;;;;;13.90;10.37;;;10.00;99.90;;;;;;5034482;28;20472;-73
2024/01/26 03:11:38;;;;;;;15.83;10.30;;;10.00;99.90;;;;;;5015924;28;20453;-72
2024/01/26 03:14:05;;;;;;;10.93;9.53;;;10.10;99.90;;;;;;5034558;28;20472;-72
2024/01/26 03:16:35;;;;;;;13.93;10.20;;;10.10;99.90;;;;;;5016071;28;20452;-72
2024/01/26 03:19:01;;;;;;;14.47;9.73;;;10.10;99.90;;;;;;5034570;28;20437;-72
2024/01/26 03:21:27;;;;;;;11.53;10.30;;;10.10;99.90;;;;;;5033452;28;20425;-72
2024/01/26 03:23:53;;;;;;;12.77;10.67;;;10.10;99.90;;;;;;5034154;28;20595;-72
2024/01/26 03:26:20;;;;;;;11.83;9.83;;;10.00;99.90;;;;;;5034310;28;20983;-72
2024/01/26 03:28:46;;;;;;;11.63;10.00;;;10.10;99.90;;;;;;5033933;28;20459;-72
2024/01/26 03:31:12;;;;;;;13.07;9.67;;;10.00;99.90;;;;;;5033838;28;20300;-72
2024/01/26 03:33:37;;;;;;;10.37;9.27;;;10.10;99.90;;;;;;5015173;28;20841;-72
2024/01/26 03:36:03;;;;;;;11.80;9.37;;;10.10;99.90;;;;;;5034109;28;20201;-72
2024/01/26 03:38:29;;;;;;;12.10;8.33;;;10.00;99.90;;;;;;5034096;28;20186;-73
2024/01/26 03:40:55;;;;;;;10.60;8.90;;;10.00;99.90;;;;;;5033981;28;20424;-72
2024/01/26 03:43:20;;;;;;;9.97;8.37;;;10.00;99.90;;;;;;5033949;28;20196;-72
2024/01/26 03:45:46;;;;;;;11.63;8.33;;;10.00;99.90;;;;;;5033399;28;20293;-73
2024/01/26 03:48:12;;;;;;;10.23;8.40;;;10.10;99.90;;;;;;5016091;28;20188;-72
2024/01/26 03:50:37;;;;;;;10.73;9.17;;;10.10;99.90;;;;;;5033473;28;20183;-73
2024/01/26 03:53:03;;;;;;;9.43;8.23;;;10.00;99.90;;;;;;5016005;28;20316;-72
2024/01/26 03:55:29;;;;;;;9.00;7.73;;;10.00;99.90;;;;;;5033667;28;20636;-73
2024/01/26 03:57:54;;;;;;;11.77;9.60;;;10.00;99.90;;;;;;5034045;28;20219;-73
2024/01/26 04:00:20;;;;;;;11.20;9.20;;;10.00;99.90;;;;;;5032313;28;20186;-73
2024/01/26 04:02:46;;;;;;;9.97;8.60;;;10.00;99.90;;;;;;5030918;28;20186;-72
2024/01/26 04:05:12;;;;;;;10.80;8.53;;;10.10;99.90;;;;;;5015039;28;20186;-73
2024/01/26 04:07:37;;;;;;;11.50;9.10;;;10.10;99.90;;;;;;5033502;28;20178;-73
2024/01/26 04:10:03;;;;;;;11.03;9.30;;;10.10;99.90;;;;;;5033036;28;20190;-73
2024/01/26 04:12:29;;;;;;;12.00;10.30;;;10.10;99.90;;;;;;5015148;28;20194;-73
2024/01/26 04:14:55;;;;;;;13.90;10.03;;;10.10;99.90;;;;;;5033403;28;21124;-72
2024/01/26 04:17:20;;;;;;;13.30;10.93;;;10.10;99.90;;;;;;5033486;28;20186;-73
2024/01/26 04:19:46;;;;;;;12.10;9.70;;;10.10;99.90;;;;;;5033665;28;20239;-73
2024/01/26 04:22:12;;;;;;;11.17;9.77;;;10.10;99.90;;;;;;5034371;28;20185;-73
2024/01/26 04:24:37;;;;;;;13.77;10.90;;;10.10;99.90;;;;;;5033998;28;20274;-73
2024/01/26 04:27:03;;;;;;;9.07;8.07;;;10.10;99.90;;;;;;5015156;28;20607;-73
2024/01/26 04:29:29;;;;;;;9.10;8.17;;;10.10;99.90;;;;;;5033728;28;20244;-73
2024/01/26 04:31:55;;;;;;;10.00;8.53;;;10.10;99.90;;;;;;5034146;28;20452;-73
2024/01/26 04:34:20;;;;;;;9.53;7.77;;;10.00;99.90;;;;;;5033856;28;20601;-72
2024/01/26 04:36:47;;;;;;;9.73;8.43;;;10.00;99.90;;;;;;5033425;28;20197;-72
2024/01/26 04:39:13;;;;;;;7.73;6.93;;;10.10;99.90;;;;;;5016534;28;20272;-73
2024/01/26 04:41:40;;;;;;;8.27;7.47;;;10.10;99.90;;;;;;5032767;28;20464;-73
2024/01/26 04:44:06;;;;;;;13.00;7.50;;;10.10;99.90;;;;;;5033832;28;21063;-73
2024/01/26 04:46:32;;;;;;;8.73;7.67;;;10.10;99.90;;;;;;5032633;28;20435;-73
2024/01/26 04:48:58;;;;;;;10.07;8.07;;;10.10;99.90;;;;;;5034396;28;20443;-73
2024/01/26 04:51:23;;;;;;;10.20;7.50;;;10.00;99.90;;;;;;5033397;28;21213;-73
2024/01/26 04:53:49;;;;;;;8.87;7.93;;;10.00;99.90;;;;;;5033716;28;20283;-74
2024/01/26 04:56:14;;;;;;;9.37;7.33;;;10.00;99.90;;;;;;5015551;28;20182;-73
2024/01/26 04:58:40;;;;;;;8.87;7.63;;;10.00;99.90;;;;;;5032947;28;21077;-73
2024/01/26 05:01:08;;;;;;;8.23;6.67;;;10.10;99.90;;;;;;5016137;28;20189;-73
2024/01/26 05:03:34;;;;;;;8.90;7.47;;;10.10;99.90;;;;;;5032210;28;20209;-73
2024/01/26 05:06:00;;;;;;;7.90;7.07;;;10.10;99.90;;;;;;5033631;28;20562;-73
2024/01/26 05:08:26;;;;;;;8.03;6.90;;;10.10;99.90;;;;;;5033888;28;20308;-73
2024/01/26 05:10:51;;;;;;;8.70;7.20;;;10.10;99.90;;;;;;5037851;28;20590;-73
2024/01/26 05:13:17;;;;;;;6.37;5.60;;;10.10;99.90;;;;;;5036489;28;20217;-74
2024/01/26 05:15:43;;;;;;;8.17;6.67;;;10.10;99.90;;;;;;5018256;28;20216;-72
2024/01/26 05:18:08;;;;;;;7.90;6.20;;;10.10;99.90;;;;;;5035161;28;20197;-73
2024/01/26 05:20:34;;;;;;;7.23;5.50;;;10.10;99.90;;;;;;5036375;28;20184;-72
2024/01/26 05:23:00;;;;;;;7.90;6.10;;;10.20;99.90;;;;;;5037754;28;20936;-72
2024/01/26 05:25:26;;;;;;;6.43;5.83;;;10.10;99.90;;;;;;5035775;28;20428;-72
2024/01/26 05:27:51;;;;;;;6.30;5.20;;;10.10;99.90;;;;;;5002906;28;20707;-72
2024/01/26 05:30:17;;;;;;;6.90;5.53;;;10.20;99.90;;;;;;5019149;28;20186;-72
2024/01/26 05:32:43;;;;;;;7.07;5.40;;;10.20;99.90;;;;;;5035963;28;20222;-73
2024/01/26 05:35:10;;;;;;;6.43;5.73;;;10.20;99.90;;;;;;5035921;28;20185;-72
2024/01/26 05:37:36;;;;;;;6.43;5.80;;;10.20;99.90;;;;;;5036019;28;20464;-73
2024/01/26 05:40:08;;;;;;;7.33;5.37;;;10.20;99.90;;;;;;5019142;28;20994;-73
2024/01/26 05:42:34;;;;;;;6.60;5.90;;;10.20;99.90;;;;;;5034943;28;20471;-73
2024/01/26 05:45:04;;;;;;;5.53;4.80;;;10.20;99.90;;;;;;5036518;28;20508;-73
2024/01/26 05:47:30;;;;;;;5.77;5.13;;;10.10;99.90;;;;;;5017520;28;20186;-72
2024/01/26 05:49:56;;;;;;;5.70;4.80;;;10.20;99.90;;;;;;5034009;28;20478;-73
2024/01/26 05:52:21;;;;;;;5.00;4.50;;;10.20;99.90;;;;;;5031311;28;20960;-73
2024/01/26 05:54:47;;;;;;;7.50;4.97;;;10.10;99.90;;;;;;5033835;28;20277;-73
2024/01/26 05:57:13;;;;;;;6.27;5.20;;;10.20;99.90;;;;;;5017898;28;20235;-73
2024/01/26 05:59:38;;;;;;;7.50;4.47;;;10.20;99.90;;;;;;5036736;28;20189;-73
2024/01/26 06:02:05;;;;;;;5.97;4.10;;;10.30;99.90;;;;;;5035369;28;20189;-73
2024/01/26 06:04:34;;;;;;;5.73;4.20;;;10.20;99.90;;;;;;5034148;28;20637;-73
2024/01/26 06:07:00;;;;;;;5.53;3.60;;;10.20;99.90;;;;;;5035361;28;20527;-73
2024/01/26 06:09:25;;;;;;;6.80;3.90;;;10.30;99.90;;;;;;5034007;28;20432;-74
2024/01/26 06:11:51;;;;;;;5.63;4.40;;;10.30;99.90;;;;;;5035902;28;20778;-73
2024/01/26 06:14:17;;;;;;;5.30;3.73;;;10.30;99.90;;;;;;5035644;28;20217;-73
2024/01/26 06:16:42;;;;;;;4.43;4.03;;;10.30;99.90;;;;;;5000655;28;20209;-73
2024/01/26 06:19:08;;;;;;;5.30;4.53;;;10.20;99.90;;;;;;5035868;28;20912;-73
2024/01/26 06:21:34;;;;;;;4.07;3.40;;;10.20;99.90;;;;;;5016253;28;20190;-73
2024/01/26 06:24:00;;;;;;;4.10;3.50;;;10.20;99.90;;;;;;5033709;28;20190;-73
2024/01/26 06:26:26;;;;;;;4.10;3.37;;;10.20;99.90;;;;;;5034544;28;20718;-73
2024/01/26 06:28:52;;;;;;;5.07;3.97;;;10.30;99.90;;;;;;5036146;28;20190;-73
2024/01/26 06:31:17;;;;;;;3.50;3.20;;;10.20;99.90;;;;;;5035208;28;20852;-73
2024/01/26 06:33:43;;;;;;;3.50;3.20;;;10.20;99.90;;;;;;5035621;28;20222;-73
2024/01/26 06:36:11;;;;;;;3.00;2.70;;;10.20;99.90;;;;;;5001541;28;20186;-73
2024/01/26 06:38:40;;;;;;;3.10;2.80;;;10.20;99.90;;;;;;5031374;28;20194;-72
2024/01/26 06:41:07;;;;;;;3.30;3.00;;;10.20;99.90;;;;;;5031718;28;20490;-73
2024/01/26 06:43:33;;;;;;;3.10;2.50;;;10.20;99.90;;;;;;5033864;28;21027;-72
2024/01/26 06:45:58;;;;;;;2.30;2.10;;;10.20;99.90;;;;;;5035838;28;20438;-72
2024/01/26 06:48:26;;;;;;;3.30;3.00;;;10.30;99.90;;;;;;5034441;28;20182;-73
2024/01/26 06:50:52;;;;;;;4.10;2.27;;;10.30;99.90;;;;;;5016868;28;20194;-73
2024/01/26 06:53:18;;;;;;;2.40;1.87;;;10.30;99.90;;;;;;5034524;28;20479;-73
2024/01/26 06:55:45;;;;;;;3.27;2.20;;;10.30;99.90;;;;;;5034415;28;20430;-73
2024/01/26 06:58:11;;;;;;;2.37;2.17;;;10.30;99.90;;;;;;5034751;28;20439;-72
2024/01/26 07:00:36;;;;;;;4.70;2.40;;;10.30;99.90;;;;;;5033470;28;20432;-73
2024/01/26 07:03:02;;;;;;;2.30;2.10;;;10.30;99.90;;;;;;5031396;28;20509;-73
2024/01/26 07:05:28;;;;;;;2.10;1.47;;;10.40;99.90;;;;;;5031938;28;20189;-73
2024/01/26 07:07:54;;;;;;;3.70;2.03;;;10.30;99.90;;;;;;5034498;28;20189;-73
2024/01/26 07:10:20;;;;;;;1.73;1.63;;;10.40;99.90;;;;;;5031303;28;20324;-73
2024/01/26 07:12:46;;;;;;;2.90;2.00;;;10.40;99.90;;;;;;5033838;28;20478;-73
2024/01/26 07:15:12;;;;;;;3.17;2.20;;;10.40;99.90;;;;;;5032046;28;20850;-72
2024/01/26 07:17:37;;;;;;;1.97;1.80;;;10.40;99.90;;;;;;5026860;28;20932;-74
2024/01/26 07:20:04;;;;;;;3.87;1.60;;;10.30;99.90;;;;;;4997719;28;20264;-71
2024/01/26 07:22:30;;;;;;;2.53;1.77;;;10.40;99.90;;;;;;5033989;28;20392;-72
2024/01/26 07:24:56;;;;;;;1.87;1.60;;;10.40;99.90;;;;;;5030782;28;20943;-74
2024/01/26 07:27:21;;;;;;;3.00;1.70;;;10.40;99.90;;;;;;5033418;28;20520;-72
2024/01/26 07:29:47;;;;;;;2.50;2.30;;;10.40;99.90;;;;;;5033911;28;20782;-72
2024/01/26 07:32:16;;;;;;;2.63;1.83;;;10.40;99.90;;;;;;5032985;28;20189;-73
2024/01/26 07:34:41;;;;;;;1.87;1.47;;;10.40;99.90;;;;;;5034019;28;20586;-75
2024/01/26 07:37:07;;;;;;;2.30;2.10;;;10.40;99.90;;;;;;5034268;28;20436;-74
2024/01/26 07:39:33;;;;;;;2.03;1.73;;;10.30;99.90;;;;;;5033199;28;20901;-76
2024/01/26 07:41:59;;;;;;;1.90;1.70;;;10.40;99.90;;;;;;5033953;28;20436;-73
2024/01/26 07:44:25;;;;;;;3.20;1.70;;;10.40;99.90;;;;;;5032445;28;21107;-75
2024/01/26 07:46:51;;;;;;;2.00;1.80;;;10.40;99.90;;;;;;5033147;28;20193;-74
2024/01/26 07:49:16;;;;;;;1.77;1.47;;;10.50;99.90;;;;;;5033052;28;20244;-71
2024/01/26 07:51:42;;;;;;;2.20;1.60;;;10.40;99.90;;;;;;5032012;28;20636;-75
2024/01/26 07:54:08;;;;;;;1.97;1.77;;;10.40;99.90;;;;;;5031462;28;20206;-73
2024/01/26 07:56:33;;;;;;;3.10;1.70;;;10.50;99.90;;;;;;5032559;28;20558;-73
2024/01/26 07:58:59;;;;;;;2.50;2.30;;;10.50;99.90;;;;;;5032852;28;20214;-72
2024/01/26 08:01:25;;;;;;;2.50;1.83;;;10.40;99.90;;;;;;5033242;28;21175;-74
2024/01/26 08:03:50;;;;;;;3.00;2.70;;;10.40;99.90;;;;;;5032862;28;20190;-74
2024/01/26 08:06:16;;;;;;;2.20;2.00;;;10.40;99.90;;;;;;5033180;28;20236;-76
2024/01/26 08:08:41;;;;;;;2.23;2.03;;;10.40;99.90;;;;;;5033267;28;20243;-75
2024/01/26 08:11:07;;;;;;;2.87;1.90;;;10.40;99.90;;;;;;5033591;28;20190;-73
2024/01/26 08:13:33;;;;;;;3.20;2.10;;;10.40;99.90;;;;;;5015520;28;20223;-74
2024/01/26 08:15:58;;;;;;;2.13;1.93;;;10.40;99.90;;;;;;5033231;28;20570;-74
2024/01/26 08:18:24;;;;;;;2.70;2.20;;;10.30;99.90;;;;;;5033520;28;20181;-73
2024/01/26 08:20:50;;;;;;;3.70;2.03;;;10.30;99.90;;;;;;5033400;28;20222;-73
2024/01/26 08:23:16;;;;;;;2.70;2.50;;;10.30;99.90;;;;;;5032966;28;20185;-74
2024/01/26 08:25:42;;;;;;;2.53;2.23;;;10.30;99.90;;;;;;5016772;28;20436;-74
2024/01/26 08:28:07;;;;;;;2.60;2.07;;;10.30;99.90;;;;;;5015973;28;20209;-72
2024/01/26 08:30:34;;;;;;;2.83;2.63;;;10.30;99.90;;;;;;5033477;28;20538;-74
2024/01/26 08:33:00;;;;;;;3.37;2.60;;;10.30;99.90;;;;;;5015363;28;20217;-74
2024/01/26 08:35:25;;;;;;;2.93;2.50;;;10.30;99.90;;;;;;5032940;28;20467;-75
2024/01/26 08:37:51;;;;;;;2.10;1.97;;;10.30;99.90;;;;;;5015887;28;21021;-72
2024/01/26 08:40:17;;;;;;;2.60;2.10;;;10.30;99.90;;;;;;5031327;28;20532;-75
2024/01/26 08:42:45;;;;;;;2.17;1.97;;;10.30;99.90;;;;;;5033192;28;20930;-73
2024/01/26 08:45:11;;;;;;;3.10;2.80;;;10.30;99.90;;;;;;5015044;28;20259;-74
2024/01/26 08:47:37;;;;;;;2.80;2.60;;;10.30;99.90;;;;;;5032370;28;20433;-75
2024/01/26 08:50:03;;;;;;;3.37;3.00;;;10.30;99.90;;;;;;5031625;28;20193;-76
2024/01/26 08:52:29;;;;;;;3.33;3.00;;;10.40;99.90;;;;;;5031268;28;20186;-73
2024/01/26 08:54:54;;;;;;;3.13;2.90;;;10.40;99.90;;;;;;5033199;28;20489;-76
2024/01/26 08:57:20;;;;;;;3.67;3.37;;;10.40;99.90;;;;;;5031547;28;20265;-75
2024/01/26 08:59:46;;;;;;;4.10;3.40;;;10.40;99.90;;;;;;5033971;28;20186;-72
2024/01/26 09:02:11;;;;;;;3.93;3.63;;;10.40;99.90;;;;;;5031500;28;20659;-72
2024/01/26 09:04:37;;;;;;;4.87;4.20;;;10.40;99.90;;;;;;5033521;28;20331;-72
2024/01/26 09:07:03;;;;;;;4.63;4.23;;;10.40;99.90;;;;;;5015054;28;20632;-75
2024/01/26 09:09:29;;;;;;;5.47;4.97;;;10.40;99.90;;;;;;5032846;28;20648;-77
2024/01/26 09:11:55;;;;;;;6.00;5.40;;;10.40;99.90;;;;;;5033221;28;20178;-74
2024/01/26 09:14:21;;;;;;;6.53;5.23;;;10.50;99.90;;;;;;5014352;28;20476;-74
2024/01/26 09:16:51;;;;;;;5.47;4.97;;;10.40;99.90;;;;;;5033412;28;20238;-71
2024/01/26 09:19:17;;;;;;;6.63;5.93;;;10.50;99.90;;;;;;5031988;28;20256;-75
2024/01/26 09:21:43;;;;;;;5.93;5.33;;;10.50;99.90;;;;;;5033373;28;20519;-75
2024/01/26 09:24:09;;;;;;;6.43;5.83;;;10.50;99.90;;;;;;5032411;28;20433;-74
2024/01/26 09:26:35;;;;;;;6.30;5.73;;;10.60;99.90;;;;;;5033098;28;20482;-73
2024/01/26 09:29:01;;;;;;;6.50;5.40;;;10.60;99.90;;;;;;5032912;28;20872;-74
2024/01/26 09:31:26;;;;;;;6.37;5.77;;;10.60;99.90;;;;;;5033082;28;20185;-72
2024/01/26 09:33:52;;;;;;;5.40;4.90;;;10.60;99.90;;;;;;5032994;28;20463;-75
2024/01/26 09:36:18;;;;;;;6.10;5.50;;;10.60;99.90;;;;;;5032081;28;20197;-76
2024/01/26 09:38:45;;;;;;;5.17;4.67;;;10.60;99.90;;;;;;5015739;28;20601;-76
2024/01/26 09:41:11;;;;;;;6.70;6.00;;;10.60;99.90;;;;;;5032346;28;20487;-78
2024/01/26 09:43:36;;;;;;;5.53;4.93;;;10.60;99.90;;;;;;4999954;28;20428;-74
2024/01/26 09:46:04;;;;;;;5.30;4.80;;;10.60;99.90;;;;;;5015932;28;20897;-74
2024/01/26 09:48:34;;;;;;;4.30;3.90;;;10.60;99.90;;;;;;5034228;28;20190;-72
2024/01/26 09:51:01;;;;;;;4.30;3.90;;;10.60;99.90;;;;;;5032457;28;20487;-74
2024/01/26 09:53:29;;;;;;;4.83;3.70;;;10.70;99.90;;;;;;5032204;28;20506;-77
2024/01/26 09:55:55;;;;;;;3.53;3.23;;;10.70;99.90;;;;;;5036407;28;20922;-74
2024/01/26 09:58:21;;;;;;;5.97;4.03;;;10.70;99.90;;;;;;5035502;28;20433;-75
2024/01/26 10:00:48;;;;;;;4.50;4.10;;;10.70;99.90;;;;;;5019066;28;21194;-75
2024/01/26 10:03:14;;;;;;;3.73;3.43;;;10.70;99.90;;;;;;5035440;28;20452;-73
2024/01/26 10:05:39;;;;;;;3.10;2.73;;;10.80;99.90;;;;;;5018189;28;20521;-77
2024/01/26 10:08:09;;;;;;;3.83;3.10;;;10.80;99.90;;;;;;5035731;28;20435;-75
2024/01/26 10:10:35;;;;;;;3.50;3.20;;;10.80;99.90;;;;;;5035940;28;20222;-78
2024/01/26 10:13:00;;;;;;;2.93;2.73;;;10.80;99.90;;;;;;5035497;28;20566;-76
2024/01/26 10:15:26;;;;;;;2.77;2.50;;;10.80;99.90;;;;;;5035816;28;20189;-77
2024/01/26 10:17:55;;;;;;;3.33;3.00;;;10.90;99.90;;;;;;5034956;28;20185;-77
2024/01/26 10:20:21;;;;;;;6.10;3.60;;;10.90;99.90;;;;;;5034949;28;20187;-73
2024/01/26 10:22:46;;;;;;;4.30;3.60;;;11.00;99.90;;;;;;5036230;28;20421;-75
2024/01/26 10:25:13;;;;;;;4.00;3.10;;;11.00;99.90;;;;;;5034450;28;20182;-74
2024/01/26 10:27:40;;;;;;;4.10;3.53;;;11.00;99.90;;;;;;5035688;28;20182;-75
2024/01/26 10:30:07;;;;;;;3.50;3.20;;;11.00;99.90;;;;;;5035033;28;20934;-75
2024/01/26 10:32:33;;;;;;;3.77;3.20;;;11.00;99.90;;;;;;5035116;28;20436;-74
2024/01/26 10:35:04;;;;;;;3.77;3.43;;;11.00;99.90;;;;;;5035599;28;20456;-77
2024/01/26 10:37:33;;;;;;;4.57;3.27;;;11.00;99.90;;;;;;5017693;28;20947;-73
2024/01/26 10:40:01;;;;;;;4.77;2.73;;;10.90;99.90;;;;;;5035263;28;20516;-75
2024/01/26 10:42:30;;;;;;;3.97;3.57;;;10.90;99.90;;;;;;5017698;28;20944;-74
2024/01/26 10:44:58;;;;;;;4.17;3.83;;;11.00;99.90;;;;;;5018001;28;20436;-74
2024/01/26 10:47:25;;;;;;;3.20;2.90;;;11.00;99.90;;;;;;5034404;28;20416;-73
2024/01/26 10:49:55;;;;;;;3.20;2.90;;;11.00;99.90;;;;;;5017419;28;20437;-76
2024/01/26 10:52:22;;;;;;;4.30;3.00;;;11.00;99.90;;;;;;5016673;28;20425;-75
2024/01/26 10:54:51;;;;;;;4.10;2.63;;;11.00;99.90;;;;;;5034905;28;20492;-76
2024/01/26 10:57:19;;;;;;;3.00;2.63;;;11.00;99.90;;;;;;5033481;28;20430;-76
2024/01/26 10:59:46;;;;;;;3.50;2.50;;;11.00;99.90;;;;;;5035700;28;20425;-76
2024/01/26 11:02:34;;;;;;;2.30;2.03;;;11.00;99.90;;;;;;5034326;28;20544;-76
2024/01/26 11:05:07;;;;;;;2.50;2.30;;;10.90;99.90;;;;;;5001443;28;20467;-75
2024/01/26 11:07:37;;;;;;;3.73;3.10;;;10.90;99.90;;;;;;5016091;28;20486;-75
2024/01/26 11:10:05;;;;;;;4.27;3.17;;;10.80;99.90;;;;;;5033671;28;20436;-74
2024/01/26 11:12:34;;;;;;;3.63;2.93;;;10.90;99.90;;;;;;5000983;28;20425;-74
2024/01/26 11:15:08;;;;;;;1.80;1.70;;;10.80;99.90;;;;;;5034549;28;20477;-74
2024/01/26 11:17:50;;;;;;;2.20;1.73;;;10.70;99.90;;;;;;5034435;28;20428;-75
2024/01/26 11:20:35;;;;;;;1.80;1.40;;;10.70;99.90;;;;;;5034123;28;20627;-77
2024/01/26 11:23:04;;;;;;;2.07;1.40;;;10.60;99.90;;;;;;5001239;28;20522;-76
2024/01/26 11:25:50;;;;;;;2.60;1.30;;;10.50;99.90;;;;;;5032074;28;20428;-74
2024/01/26 11:28:17;;;;;;;2.33;1.30;;;10.50;99.90;;;;;;5033251;28;20436;-76
2024/01/26 11:30:52;;;;;;;1.43;1.00;;;10.40;99.90;;;;;;5017208;28;20859;-74
2024/01/26 11:33:21;;;;;;;3.10;1.77;;;10.40;99.90;;;;;;5000702;28;20562;-76
2024/01/26 11:35:47;;;;;;;2.80;0.93;;;10.30;99.90;;;;;;5034391;28;20435;-75
2024/01/26 11:38:13;;;;;;;4.10;1.03;;;10.30;99.90;;;;;;5032630;28;20528;-76
2024/01/26 11:40:40;;;;;;;3.20;1.50;;;10.20;99.90;;;;;;5034505;28;20794;-76
2024/01/26 11:43:07;;;;;;;2.30;1.30;;;10.20;99.90;;;;;;5033495;28;20431;-74
2024/01/26 11:45:42;;;;;;;7.60;1.60;;;10.10;99.90;;;;;;5033736;28;20429;-76
2024/01/26 11:48:08;;;;;;;5.40;1.40;;;10.10;99.90;;;;;;5033470;28;20435;-74
2024/01/26 11:50:36;;;;;;;3.83;1.40;;;10.10;99.90;;;;;;5032253;28;20428;-75
2024/01/26 11:53:03;;;;;;;2.60;1.13;;;10.10;99.90;;;;;;5030927;28;20646;-75
2024/01/26 11:55:29;;;;;;;4.60;1.40;;;9.90;99.90;;;;;;5033649;28;20428;-76
2024/01/26 11:57:55;;;;;;;4.13;1.10;;;9.80;99.90;;;;;;5015729;28;21150;-75
2024/01/26 12:00:21;;;;;;;3.80;0.90;;;9.80;99.90;;;;;;5015746;28;20440;-74
2024/01/26 12:02:47;;;;;;;4.87;1.40;;;9.70;99.90;;;;;;5034111;28;20428;-75
2024/01/26 12:05:15;;;;;;;5.80;1.27;;;9.70;99.90;;;;;;5032668;28;20208;-77
2024/01/26 12:07:41;;;;;;;4.43;1.50;;;9.70;99.90;;;;;;5033180;28;20425;-74
2024/01/26 12:10:08;;;;;;;2.70;0.90;;;9.60;99.90;;;;;;5015078;28;20440;-76
2024/01/26 12:12:34;;;;;;;4.13;1.20;;;9.60;99.90;;;;;;5032949;28;20441;-77
2024/01/26 12:15:02;;;;;;;4.60;1.00;;;9.60;99.90;;;;;;5014811;28;20555;-74
2024/01/26 12:17:28;;;;;;;4.07;1.30;;;9.60;99.90;;;;;;5032619;28;20491;-75
2024/01/26 12:19:55;;;;;;;2.60;1.00;;;9.50;99.90;;;;;;5032983;28;20428;-74
2024/01/26 12:22:20;;;;;;;6.40;1.20;;;9.40;99.90;;;;;;5032842;28;20195;-73
2024/01/26 12:24:46;;;;;;;5.67;1.10;;;10.50;99.90;;;;;;5016257;28;20814;-75
2024/01/26 12:27:12;;;;;;;3.80;1.57;;;13.10;99.90;;;;;;5032134;28;20221;-76
2024/01/26 12:29:38;;;;;;;2.37;0.90;;;15.90;99.90;;;;;;5016591;28;20655;-77
2024/01/26 12:32:04;;;;;;;1.23;0.70;;;18.10;99.90;;;;;;5031786;28;20265;-74
2024/01/26 12:34:30;;;;;;;2.50;1.00;;;19.70;99.60;;;;;;5033745;28;20210;-74
2024/01/26 12:36:59;;;;;;;2.30;0.97;;;19.10;97.00;;;;;;5032715;28;20439;-74
2024/01/26 12:39:25;;;;;;;5.07;1.40;;;17.80;99.50;;;;;;5000350;28;20432;-76